Time;durP1;ratioP1;P1;durP2;ratioP2;P2;SDS_P1;SDS_P2;PMS_P1;PMS_P2;Temp;Humidity;BMP_temperature;BMP_pressure;BME280_temperature;BME280_humidity;BME280_pressure;Samples;Min_cycle;Max_cycle;Signal;HPM_P1;HPM_P2
2022/08/22 00:01:43;;;;;;;27.40;7.15;;;;;;;19.18;92.32;99401.29;1623891;84;21520;-74
2022/08/22 00:04:21;;;;;;;23.55;6.75;;;;;;;19.18;92.01;99399.92;1650754;84;21158;-75
2022/08/22 00:07:19;;;;;;;27.35;7.87;;;;;;;19.24;91.25;99396.48;1690027;84;21093;-73
2022/08/22 00:10:04;;;;;;;23.50;7.33;;;;;;;19.25;90.90;99404.91;1660643;84;21233;-72
2022/08/22 00:12:58;;;;;;;22.15;7.72;;;;;;;19.28;90.69;99398.85;1657616;84;21058;-73
2022/08/22 00:15:36;;;;;;;36.42;8.80;;;;;;;19.33;90.30;99388.58;1662753;84;21101;-72
2022/08/22 00:18:23;;;;;;;26.23;7.78;;;;;;;19.35;89.71;99386.36;1636290;86;21010;-73
2022/08/22 00:21:12;;;;;;;22.95;7.33;;;;;;;19.36;89.47;99396.16;1665292;84;21622;-75
2022/08/22 00:24:14;;;;;;;20.25;6.53;;;;;;;19.34;88.90;99390.20;1682208;84;21233;-73
2022/08/22 00:26:55;;;;;;;33.38;7.60;;;;;;;19.28;88.82;99385.99;1677852;84;21073;-74
2022/08/22 00:29:29;;;;;;;24.75;8.53;;;;;;;19.25;89.04;99393.45;1672170;84;20958;-74
2022/08/22 00:32:11;;;;;;;22.80;6.53;;;;;;;19.27;88.79;99392.59;1671074;85;21025;-73
2022/08/22 00:35:00;;;;;;;22.82;7.28;;;;;;;19.31;88.62;99395.48;1652495;84;21100;-73
2022/08/22 00:37:38;;;;;;;25.12;7.47;;;;;;;19.33;88.43;99394.62;1619830;85;21807;-73
2022/08/22 00:40:36;;;;;;;17.77;5.92;;;;;;;19.35;87.73;99391.00;1663796;84;22193;-75
2022/08/22 00:43:30;;;;;;;23.07;6.78;;;;;;;19.34;87.75;99388.83;1672677;84;21030;-78
2022/08/22 00:46:24;;;;;;;30.23;6.72;;;;;;;19.28;87.56;99392.03;1661886;84;21125;-81
2022/08/22 00:49:06;;;;;;;20.40;5.42;;;;;;;19.24;87.65;99398.66;1664439;84;21026;-78
2022/08/22 00:52:10;;;;;;;27.77;7.55;;;;;;;19.17;87.89;99392.86;1622534;87;21234;-77
2022/08/22 00:55:00;;;;;;;24.57;6.53;;;;;;;19.14;87.98;99391.55;1656288;84;20963;-76
2022/08/22 00:57:44;;;;;;;21.45;7.00;;;;;;;19.13;88.09;99402.23;1655298;84;21050;-79
2022/08/22 01:00:18;;;;;;;14.93;5.97;;;;;;;19.09;87.96;99411.32;1668481;84;21124;-78
2022/08/22 01:03:02;;;;;;;16.48;6.10;;;;;;;19.03;87.88;99406.59;1664978;84;21046;-81
2022/08/22 01:06:03;;;;;;;19.20;7.10;;;;;;;19.00;87.96;99405.83;1656426;84;21146;-83
2022/08/22 01:08:58;;;;;;;23.75;5.75;;;;;;;18.99;87.74;99413.75;1671380;85;21097;-81
2022/08/22 01:11:37;;;;;;;26.68;6.37;;;;;;;18.95;87.78;99416.05;1669820;84;21104;-81
2022/08/22 01:14:21;;;;;;;16.40;4.90;;;;;;;18.97;87.69;99416.55;1613565;87;21503;-84
2022/08/22 01:17:15;;;;;;;16.00;5.08;;;;;;;18.97;87.31;99418.73;1671338;84;21034;-83
2022/08/22 01:20:06;;;;;;;17.75;5.03;;;;;;;18.92;87.26;99407.95;1672577;84;21574;-78
2022/08/22 01:23:17;;;;;;;19.73;5.45;;;;;;;18.89;87.35;99405.86;1674704;84;20966;-76
2022/08/22 01:26:35;;;;;;;23.32;6.35;;;;;;;18.87;87.36;99410.00;1656007;85;21483;-79
2022/08/22 01:29:28;;;;;;;27.75;7.25;;;;;;;18.80;87.53;99412.38;1673206;85;21086;-76
2022/08/22 01:32:28;;;;;;;26.35;6.58;;;;;;;18.82;87.53;99404.12;1621994;84;21495;-77
2022/08/22 01:35:18;;;;;;;22.98;6.40;;;;;;;18.81;87.30;99414.77;1661068;84;21226;-78
2022/08/22 01:38:03;;;;;;;23.38;7.17;;;;;;;18.79;87.31;99413.48;1608844;87;21266;-76
2022/08/22 01:41:16;;;;;;;22.55;6.12;;;;;;;18.75;87.41;99410.58;1615735;86;21106;-77
2022/08/22 01:44:26;;;;;;;20.40;5.95;;;;;;;18.68;87.55;99416.45;1637451;84;21523;-79
2022/08/22 01:47:15;;;;;;;13.80;4.67;;;;;;;18.58;87.74;99418.61;1659971;86;21027;-82
2022/08/22 01:49:59;;;;;;;17.52;7.15;;;;;;;18.57;87.76;99415.08;1630789;87;21613;-84
2022/08/22 01:53:13;;;;;;;17.00;6.85;;;;;;;18.57;87.61;99412.91;1681660;84;21098;-81
2022/08/22 01:55:56;;;;;;;26.93;6.42;;;;;;;18.57;87.37;99418.36;1638711;86;21118;-80
2022/08/22 01:58:25;;;;;;;;;;;;;;;18.50;87.17;99422.86;1666069;84;21085;-80
2022/08/22 02:01:09;;;;;;;21.62;6.62;;;;;;;18.44;87.14;99415.11;1677142;84;20450;-83
2022/08/22 02:03:54;;;;;;;14.30;5.80;;;;;;;18.44;87.19;99416.47;1639968;84;22271;-80
2022/08/22 02:07:01;;;;;;;24.65;7.45;;;;;;;18.44;86.91;99413.74;1661430;84;21055;-82
2022/08/22 02:09:53;;;;;;;22.87;6.20;;;;;;;18.47;87.07;99417.20;1615037;87;21059;-88
2022/08/22 02:12:49;;;;;;;25.82;6.70;;;;;;;18.46;86.81;99416.98;1610448;86;21082;-80
2022/08/22 02:15:43;;;;;;;12.75;4.42;;;;;;;18.41;86.83;99419.81;1612005;86;21028;-74
2022/08/22 02:18:27;;;;;;;13.80;4.85;;;;;;;18.36;86.95;99422.66;1564704;90;21260;-73
2022/08/22 02:21:17;;;;;;;17.37;5.58;;;;;;;18.33;86.99;99425.97;1611113;88;20972;-73
2022/08/22 02:24:04;;;;;;;18.25;5.75;;;;;;;18.30;87.04;99421.96;1615360;87;21547;-73
2022/08/22 02:26:51;;;;;;;19.70;7.72;;;;;;;18.27;87.04;99423.95;1689484;84;21069;-74
2022/08/22 02:29:29;;;;;;;18.75;6.90;;;;;;;18.23;87.26;99422.92;1672800;84;21527;-73
2022/08/22 02:32:01;;;;;;;21.35;6.08;;;;;;;18.17;87.30;99429.06;1659235;84;21173;-75
2022/08/22 02:34:39;;;;;;;12.37;5.87;;;;;;;18.19;87.19;99421.93;1683560;84;20950;-75
2022/08/22 02:37:20;;;;;;;26.23;7.55;;;;;;;18.12;87.08;99424.28;1664294;84;21018;-74
2022/08/22 02:40:33;;;;;;;28.15;6.80;;;;;;;18.04;87.51;99424.98;1673121;84;21021;-73
2022/08/22 02:43:20;;;;;;;24.32;6.15;;;;;;;18.09;87.61;99428.95;1671674;85;21587;-73
2022/08/22 02:45:53;;;;;;;17.85;6.10;;;;;;;18.08;87.40;99429.51;1590380;87;21274;-74
2022/08/22 02:48:51;;;;;;;17.65;5.47;;;;;;;18.06;87.27;99434.47;1661478;84;21589;-72
2022/08/22 02:52:03;;;;;;;19.65;6.03;;;;;;;18.03;87.23;99437.00;1643696;84;21046;-73
2022/08/22 02:54:42;;;;;;;16.35;4.92;;;;;;;17.97;87.20;99432.22;1671903;84;21080;-74
2022/08/22 02:57:13;;;;;;;24.02;5.55;;;;;;;17.92;87.27;99431.52;1631414;84;21061;-74
2022/08/22 03:00:23;;;;;;;16.93;5.55;;;;;;;17.93;87.14;99446.19;1644197;86;21202;-74
2022/08/22 03:03:04;;;;;;;15.40;5.00;;;;;;;18.02;86.88;99442.19;1661835;84;21027;-74
2022/08/22 03:05:42;;;;;;;26.42;6.83;;;;;;;18.06;86.00;99448.62;1610853;87;21123;-74
2022/08/22 03:08:34;;;;;;;19.50;6.00;;;;;;;18.04;86.08;99459.81;1668660;85;21073;-74
2022/08/22 03:11:24;;;;;;;18.30;5.95;;;;;;;18.04;86.02;99454.37;1660460;84;22236;-74
2022/08/22 03:14:28;;;;;;;25.80;6.72;;;;;;;18.04;85.77;99448.11;1651029;84;21209;-75
2022/08/22 03:17:09;;;;;;;20.23;4.85;;;;;;;17.97;85.74;99445.02;1658067;84;21096;-74
2022/08/22 03:19:54;;;;;;;27.00;6.05;;;;;;;17.93;86.02;99444.02;1670866;84;21600;-74
2022/08/22 03:22:42;;;;;;;18.07;4.28;;;;;;;17.90;86.16;99445.41;1642067;85;21153;-74
2022/08/22 03:25:35;;;;;;;11.70;4.37;;;;;;;17.85;86.16;99444.97;1662036;85;21058;-75
2022/08/22 03:28:15;;;;;;;15.10;5.10;;;;;;;17.81;86.50;99448.59;1673814;85;21604;-75
2022/08/22 03:31:14;;;;;;;21.90;4.42;;;;;;;17.71;86.84;99445.53;1634300;84;21044;-75
2022/08/22 03:33:41;;;;;;;12.33;4.83;;;;;;;17.69;87.08;99451.84;1655439;84;22326;-74
2022/08/22 03:36:19;;;;;;;14.38;6.05;;;;;;;17.68;87.25;99455.66;1648571;85;21551;-74
2022/08/22 03:39:15;;;;;;;20.72;6.28;;;;;;;17.65;87.32;99463.05;1673191;85;20982;-75
2022/08/22 03:42:00;;;;;;;21.15;6.35;;;;;;;17.61;87.36;99468.84;1657427;84;21537;-75
2022/08/22 03:44:59;;;;;;;14.03;4.75;;;;;;;17.63;87.05;99471.27;1646748;84;21030;-74
2022/08/22 03:47:37;;;;;;;11.40;5.08;;;;;;;17.68;86.71;99470.62;1607756;87;21066;-75
2022/08/22 03:50:29;;;;;;;21.73;5.45;;;;;;;17.71;86.35;99476.81;1661276;84;21543;-73
2022/08/22 03:53:07;;;;;;;15.83;6.50;;;;;;;17.73;86.03;99476.52;1639197;87;21635;-76
2022/08/22 03:56:11;;;;;;;20.62;5.08;;;;;;;17.73;85.69;99481.95;1653815;84;21347;-75
2022/08/22 03:58:56;;;;;;;21.42;4.53;;;;;;;17.70;85.65;99477.11;1620233;87;21122;-75
2022/08/22 04:01:30;;;;;;;14.20;5.60;;;;;;;17.69;85.57;99484.48;1647127;84;21075;-73
2022/08/22 04:04:17;;;;;;;19.32;5.45;;;;;;;17.72;85.21;99483.88;1672722;84;21029;-73
2022/08/22 04:07:08;;;;;;;16.12;4.25;;;;;;;17.73;85.04;99479.24;1670191;84;21120;-73
2022/08/22 04:09:52;;;;;;;15.68;6.55;;;;;;;17.77;84.70;99487.05;1646180;84;21144;-74
2022/08/22 04:12:53;;;;;;;13.90;4.65;;;;;;;17.78;84.29;99486.75;1639094;85;21678;-75
2022/08/22 04:15:38;;;;;;;21.70;6.20;;;;;;;17.83;83.91;99488.56;1672071;84;21038;-74
2022/08/22 04:18:33;;;;;;;16.93;3.90;;;;;;;17.86;83.52;99483.87;1663858;84;21542;-74
2022/08/22 04:21:37;;;;;;;23.02;5.33;;;;;;;17.89;83.25;99481.11;1672385;84;21105;-74
2022/08/22 04:24:45;;;;;;;11.43;3.75;;;;;;;17.88;82.06;99480.30;1670351;84;21359;-73
2022/08/22 04:27:38;;;;;;;23.22;5.05;;;;;;;17.88;82.36;99484.39;1664248;84;21011;-72
2022/08/22 04:30:17;;;;;;;11.28;4.60;;;;;;;17.90;82.39;99482.15;1646457;85;21574;-73
2022/08/22 04:32:47;;;;;;;25.05;5.45;;;;;;;17.97;81.85;99500.80;1659538;84;21510;-73
2022/08/22 04:35:35;;;;;;;20.95;4.92;;;;;;;18.04;81.39;99502.00;1633884;86;21023;-73
2022/08/22 04:38:10;;;;;;;21.95;5.53;;;;;;;18.12;80.74;99507.30;1637427;84;21257;-74
2022/08/22 04:40:54;;;;;;;19.50;4.50;;;;;;;18.19;80.58;99502.23;1636163;84;21033;-77
2022/08/22 04:43:30;;;;;;;13.18;4.37;;;;;;;18.28;80.17;99505.85;1637509;84;21016;-77
2022/08/22 04:46:10;;;;;;;15.20;5.08;;;;;;;18.36;79.79;99509.23;1618370;86;21045;-77
2022/08/22 04:49:02;;;;;;;18.73;4.87;;;;;;;18.41;79.47;99515.13;1602880;87;21052;-75
2022/08/22 04:52:01;;;;;;;13.50;3.95;;;;;;;18.47;79.02;99511.16;1612095;87;21543;-75
2022/08/22 04:54:59;;;;;;;18.07;4.97;;;;;;;18.51;78.30;99514.33;1658767;84;21099;-74
2022/08/22 04:57:58;;;;;;;17.62;4.00;;;;;;;18.54;77.79;99519.77;1636707;84;21646;-73
2022/08/22 05:00:25;;;;;;;24.00;4.65;;;;;;;18.61;77.19;99525.58;1661533;84;21054;-75
2022/08/22 05:02:55;;;;;;;14.70;4.22;;;;;;;18.66;75.95;99520.02;1626039;87;21060;-76
2022/08/22 05:05:30;;;;;;;15.50;3.87;;;;;;;18.71;75.63;99525.36;1574442;89;21768;-75
2022/08/22 05:07:59;;;;;;;16.90;4.17;;;;;;;18.72;75.23;99517.44;1605109;87;20952;-76
2022/08/22 05:10:35;;;;;;;13.35;5.28;;;;;;;18.77;75.51;99517.88;1595973;87;21089;-76
2022/08/22 05:13:12;;;;;;;18.45;5.67;;;;;;;18.82;75.68;99515.84;1606633;87;21607;-74
2022/08/22 05:15:44;;;;;;;16.50;7.90;;;;;;;18.88;75.33;99522.80;1639906;84;21017;-74
2022/08/22 05:18:29;;;;;;;39.55;15.45;;;;;;;18.94;74.18;99515.31;1643774;84;21232;-75
2022/08/22 05:20:57;;;;;;;22.87;9.08;;;;;;;18.92;73.91;99515.61;1649251;85;20970;-76
2022/08/22 05:23:28;;;;;;;28.90;11.95;;;;;;;18.94;73.44;99520.20;1659249;84;21071;-74
2022/08/22 05:25:59;;;;;;;44.50;12.82;;;;;;;19.00;73.28;99530.41;1655494;85;21081;-74
2022/08/22 05:28:44;;;;;;;23.92;8.68;;;;;;;19.04;72.97;99535.52;1657091;84;21799;-75
2022/08/22 05:31:14;;;;;;;18.87;7.08;;;;;;;19.05;71.88;99529.73;1612408;86;21832;-77
2022/08/22 05:33:55;;;;;;;20.95;5.72;;;;;;;19.05;71.66;99531.09;1608569;86;21018;-77
2022/08/22 05:36:27;;;;;;;16.60;6.33;;;;;;;19.08;71.07;99526.95;1626153;86;21025;-77
2022/08/22 05:39:00;;;;;;;18.23;4.62;;;;;;;19.12;71.08;99527.39;1662035;84;21578;-76
2022/08/22 05:41:30;;;;;;;19.50;4.33;;;;;;;19.18;70.63;99529.44;1641450;84;21047;-77
2022/08/22 05:43:57;;;;;;;12.65;5.12;;;;;;;19.24;70.65;99528.17;1655783;84;21504;-76
2022/08/22 05:46:42;;;;;;;15.32;3.62;;;;;;;19.27;70.24;99527.57;1638013;86;21028;-78
2022/08/22 05:49:35;;;;;;;18.90;3.80;;;;;;;19.35;70.16;99531.45;1647171;84;21034;-78
2022/08/22 05:52:23;;;;;;;14.83;4.50;;;;;;;19.42;69.76;99531.84;1642452;84;21070;-76
2022/08/22 05:55:12;;;;;;;13.32;4.10;;;;;;;19.53;69.49;99537.28;1648934;84;21866;-72
2022/08/22 05:57:42;;;;;;;14.68;3.22;;;;;;;19.55;68.29;99535.87;1660643;84;22525;-72
2022/08/22 06:00:16;;;;;;;22.95;5.15;;;;;;;19.60;68.60;99537.66;1662800;84;21591;-72
2022/08/22 06:03:06;;;;;;;23.22;5.25;;;;;;;19.66;68.32;99531.52;1643125;84;21138;-73
2022/08/22 06:05:41;;;;;;;19.32;3.95;;;;;;;19.73;68.28;99525.03;1602223;86;21099;-73
2022/08/22 06:08:38;;;;;;;11.70;3.77;;;;;;;19.82;68.18;99534.06;1609093;87;21067;-73
2022/08/22 06:11:16;;;;;;;11.90;4.05;;;;;;;19.88;67.26;99534.18;1604258;87;21574;-73
2022/08/22 06:13:48;;;;;;;19.62;3.80;;;;;;;19.90;67.21;99537.41;1609100;87;21425;-75
2022/08/22 06:16:24;;;;;;;16.15;3.67;;;;;;;19.98;67.25;99527.88;1599212;88;28252;-73
2022/08/22 06:18:51;;;;;;;19.00;3.40;;;;;;;20.07;67.14;99526.55;1611731;87;21039;-74
2022/08/22 06:21:30;;;;;;;19.67;3.92;;;;;;;20.17;66.68;99522.16;1615953;87;21568;-74
2022/08/22 06:23:59;;;;;;;21.12;4.33;;;;;;;20.25;66.46;99526.83;1612494;89;21904;-73
2022/08/22 06:26:30;;;;;;;23.22;5.50;;;;;;;20.36;66.51;99530.11;1584231;89;21094;-73
2022/08/22 06:28:58;;;;;;;14.25;3.67;;;;;;;20.42;66.34;99537.03;1671348;84;20954;-74
2022/08/22 06:31:35;;;;;;;13.58;4.22;;;;;;;20.45;65.24;99537.20;1666817;84;21132;-72
2022/08/22 06:34:25;;;;;;;11.15;3.92;;;;;;;20.51;65.56;99534.31;1652789;84;21062;-72
2022/08/22 06:36:52;;;;;;;16.48;4.33;;;;;;;20.57;65.69;99530.31;1645499;86;21285;-73
2022/08/22 06:39:35;;;;;;;23.47;5.55;;;;;;;20.63;65.94;99531.74;1596338;88;21024;-74
2022/08/22 06:42:27;;;;;;;29.70;6.20;;;;;;;20.70;66.14;99528.80;1634101;86;21068;-74
2022/08/22 06:45:11;;;;;;;17.32;5.72;;;;;;;20.78;66.26;99534.02;1621123;86;21066;-74
2022/08/22 06:47:43;;;;;;;14.45;4.85;;;;;;;20.83;66.60;99530.56;1645632;84;21150;-74
2022/08/22 06:50:21;;;;;;;12.03;4.35;;;;;;;20.92;66.73;99535.22;1661656;84;21207;-73
2022/08/22 06:53:13;;;;;;;23.47;6.17;;;;;;;21.01;66.53;99528.62;1651818;84;21063;-75
2022/08/22 06:55:45;;;;;;;20.62;4.70;;;;;;;21.14;66.30;99529.06;1661199;84;21058;-73
2022/08/22 06:58:22;;;;;;;22.95;4.83;;;;;;;21.30;66.28;99530.71;1641358;84;21130;-74
2022/08/22 07:00:53;;;;;;;16.97;4.35;;;;;;;21.44;65.75;99533.28;1654349;84;21486;-73
2022/08/22 07:03:36;;;;;;;30.05;6.25;;;;;;;21.56;64.96;99529.30;1660596;84;21142;-74
2022/08/22 07:06:03;;;;;;;16.10;4.58;;;;;;;21.67;63.86;99529.19;1615233;86;21040;-73
2022/08/22 07:08:33;;;;;;;23.62;4.67;;;;;;;21.75;63.13;99522.31;1612942;89;21544;-74
2022/08/22 07:11:20;;;;;;;11.93;4.67;;;;;;;21.84;62.48;99529.12;1612879;87;20999;-74
2022/08/22 07:14:01;;;;;;;10.98;3.55;;;;;;;21.91;61.85;99526.69;1595874;87;21628;-74
2022/08/22 07:16:41;;;;;;;20.75;4.95;;;;;;;21.96;61.86;99525.17;1591865;87;21217;-74
2022/08/22 07:19:24;;;;;;;17.52;4.42;;;;;;;22.01;62.25;99521.44;1635301;84;21542;-74
2022/08/22 07:21:53;;;;;;;10.78;4.35;;;;;;;22.08;62.41;99528.00;1663137;84;20974;-73
2022/08/22 07:24:25;;;;;;;22.70;5.47;;;;;;;22.15;62.42;99522.02;1661430;84;21050;-74
2022/08/22 07:27:21;;;;;;;28.92;9.68;;;;;;;22.23;62.23;99520.34;1661922;84;21164;-73
2022/08/22 07:30:05;;;;;;;15.60;6.15;;;;;;;22.30;62.28;99524.16;1663008;84;21289;-74
2022/08/22 07:33:05;;;;;;;39.92;6.35;;;;;;;22.41;62.18;99513.63;1659066;84;20973;-76
2022/08/22 07:35:40;;;;;;;50.48;6.42;;;;;;;22.52;60.95;99509.36;1657442;84;21014;-74
2022/08/22 07:38:28;;;;;;;17.82;4.60;;;;;;;22.60;60.22;99511.23;1631585;86;21019;-75
2022/08/22 07:41:03;;;;;;;22.42;4.50;;;;;;;22.66;60.21;99511.84;1616373;88;21600;-73
2022/08/22 07:43:36;;;;;;;20.52;4.03;;;;;;;22.76;59.68;99503.25;1634487;84;21136;-73
2022/08/22 07:46:09;;;;;;;14.18;3.72;;;;;;;22.85;58.58;99508.09;1660300;84;21639;-75
2022/08/22 07:49:01;;;;;;;19.45;5.25;;;;;;;22.91;58.04;99509.50;1640633;84;21075;-74
2022/08/22 07:51:35;;;;;;;20.85;3.62;;;;;;;22.96;58.01;99512.04;1601195;87;21607;-73
2022/08/22 07:54:09;;;;;;;27.40;4.72;;;;;;;23.02;57.63;99509.33;1637393;84;21081;-74
2022/08/22 07:56:44;;;;;;;20.62;4.37;;;;;;;23.08;56.40;99503.84;1646193;84;21239;-74
2022/08/22 07:59:16;;;;;;;15.90;4.67;;;;;;;23.15;56.75;99496.45;1650830;84;21041;-74
2022/08/22 08:01:44;;;;;;;18.15;3.58;;;;;;;23.23;57.03;99498.30;1658702;84;21050;-75
2022/08/22 08:04:15;;;;;;;14.07;5.83;;;;;;;23.30;57.01;99495.81;1655108;84;20970;-75
2022/08/22 08:06:42;;;;;;;21.87;3.90;;;;;;;23.37;56.00;99500.16;1640233;85;21053;-74
2022/08/22 08:09:14;;;;;;;22.32;5.03;;;;;;;23.48;56.08;99504.69;1647264;84;21133;-73
2022/08/22 08:11:42;;;;;;;21.35;4.47;;;;;;;23.57;55.90;99508.94;1643604;84;21016;-73
2022/08/22 08:14:15;;;;;;;10.65;2.98;;;;;;;23.65;55.30;99508.59;1624548;86;21129;-72
2022/08/22 08:17:01;;;;;;;23.60;4.00;;;;;;;23.71;54.16;99503.13;1663341;84;21027;-71
2022/08/22 08:19:29;;;;;;;12.93;4.05;;;;;;;23.80;53.88;99508.74;1661664;84;21042;-72
2022/08/22 08:21:56;;;;;;;10.23;3.12;;;;;;;23.85;53.92;99503.03;1644149;84;21183;-70
2022/08/22 08:24:31;;;;;;;17.17;4.40;;;;;;;23.90;53.11;99510.23;1650977;84;21014;-71
2022/08/22 08:29:53;;;;;;;18.75;4.15;;;;;;;24.02;52.86;99510.83;1609896;87;21601;-72
2022/08/22 08:32:23;;;;;;;14.98;3.87;;;;;;;24.07;52.80;99507.85;1602120;87;21053;-71
2022/08/22 08:34:50;;;;;;;25.12;8.85;;;;;;;24.12;53.08;99507.63;1575447;88;21608;-74
2022/08/22 08:37:26;;;;;;;26.02;4.47;;;;;;;24.18;53.07;99507.63;1580532;88;21073;-73
2022/08/22 08:39:57;;;;;;;23.60;4.15;;;;;;;24.25;53.31;99503.75;1597753;88;21054;-73
2022/08/22 08:45:50;;;;;;;35.03;4.10;;;;;;;24.42;53.20;99508.17;1588149;88;21531;-71
2022/08/22 08:48:34;;;;;;;25.65;3.65;;;;;;;24.53;52.22;99505.98;1589405;88;21189;-73
2022/08/22 08:51:59;;;;;;;20.37;3.58;;;;;;;24.64;52.02;99507.70;1590947;88;20979;-73
2022/08/22 08:54:58;;;;;;;24.35;8.15;;;;;;;24.74;51.71;99503.08;1588341;89;21115;-74
2022/08/22 08:57:49;;;;;;;26.97;4.50;;;;;;;24.83;50.92;99509.24;1627622;86;21049;-74
2022/08/22 09:00:43;;;;;;;25.92;4.08;;;;;;;24.89;50.34;99508.45;1633536;86;21320;-73
2022/08/22 09:03:47;;;;;;;;;;;;;;;24.93;50.55;99506.03;1641608;86;21052;-72
2022/08/22 09:06:43;;;;;;;21.12;3.70;;;;;;;25.02;49.46;99504.50;1636700;86;20172;-72
2022/08/22 09:09:31;;;;;;;21.52;3.30;;;;;;;25.04;48.60;99511.24;1644891;86;21052;-71
2022/08/22 09:12:25;;;;;;;23.32;4.95;;;;;;;25.14;48.46;99509.94;1625210;87;21003;-72
2022/08/22 09:15:15;;;;;;;23.77;3.70;;;;;;;25.18;48.67;99507.52;1636309;86;21552;-70
2022/08/22 09:18:07;;;;;;;19.92;3.85;;;;;;;25.28;49.02;99506.77;1636658;87;22195;-71
2022/08/22 09:21:09;;;;;;;28.90;6.87;;;;;;;25.34;49.67;99506.17;1636690;86;21007;-70
2022/08/22 09:36:01;;;;;;;31.30;5.45;;;;;;;25.83;46.00;99502.57;1636814;84;21649;-75
2022/08/22 09:38:58;;;;;;;24.23;5.17;;;;;;;25.89;45.88;99504.48;1613275;87;21019;-71
2022/08/22 09:41:36;;;;;;;23.00;3.83;;;;;;;25.95;45.95;99504.42;1666892;86;20987;-73
2022/08/22 09:44:25;;;;;;;34.75;5.08;;;;;;;25.99;45.72;99505.33;1671292;84;21011;-71
2022/08/22 09:47:21;;;;;;;30.82;5.08;;;;;;;25.98;46.13;99497.64;1695060;84;21149;-71
2022/08/22 09:50:14;;;;;;;30.97;5.00;;;;;;;26.01;46.14;99502.42;1640207;86;21082;-72
2022/08/22 09:53:09;;;;;;;41.58;5.25;;;;;;;26.12;45.55;99493.03;1653008;86;21043;-72
2022/08/22 09:55:57;;;;;;;27.22;4.92;;;;;;;26.23;45.31;99498.84;1640104;87;21520;-72
2022/08/22 09:58:51;;;;;;;52.95;7.47;;;;;;;26.33;45.24;99490.78;1640369;87;21019;-71
2022/08/22 10:01:21;;;;;;;;;;;;;;;26.47;45.44;99493.86;1641128;87;21176;-74
2022/08/22 10:04:13;;;;;;;37.48;6.20;;;;;;;26.59;45.48;99483.29;1667460;86;20474;-70
2022/08/22 10:06:55;;;;;;;50.15;5.80;;;;;;;26.61;45.48;99497.53;1632515;86;21076;-73
2022/08/22 10:09:25;;;;;;;36.90;5.33;;;;;;;26.71;45.34;99489.27;1667121;86;21146;-71
2022/08/22 10:12:00;;;;;;;40.35;5.28;;;;;;;26.80;45.02;99490.65;1667195;86;21037;-72
2022/08/22 10:14:55;;;;;;;32.90;5.55;;;;;;;26.85;44.79;99486.80;1667322;86;21135;-70
2022/08/22 10:17:30;;;;;;;27.10;5.90;;;;;;;26.93;45.06;99491.91;1662280;86;21036;-70
2022/08/22 10:20:02;;;;;;;39.35;8.68;;;;;;;27.02;44.57;99489.72;1667444;86;20989;-71
2022/08/22 10:23:00;;;;;;;36.58;5.60;;;;;;;27.07;45.03;99489.42;1666832;86;21060;-69
2022/08/22 10:25:35;;;;;;;56.45;7.90;;;;;;;27.13;44.68;99491.54;1667082;86;21044;-70
2022/08/22 10:28:19;;;;;;;58.33;9.05;;;;;;;27.25;45.11;99487.22;1666325;86;21393;-71
2022/08/22 10:31:04;;;;;;;45.70;6.37;;;;;;;27.40;45.24;99491.05;1645018;86;21059;-70
2022/08/22 10:33:42;;;;;;;64.42;8.43;;;;;;;27.51;45.09;99489.31;1666850;86;21044;-70
2022/08/22 10:36:12;;;;;;;36.63;6.20;;;;;;;27.58;45.19;99490.80;1622062;87;21078;-72
2022/08/22 10:38:51;;;;;;;44.67;6.70;;;;;;;27.71;45.31;99496.39;1626931;87;21139;-72
2022/08/22 10:41:36;;;;;;;47.43;7.80;;;;;;;27.78;45.10;99485.21;1594955;88;21192;-69
2022/08/22 10:44:27;;;;;;;64.87;8.90;;;;;;;27.82;45.04;99494.39;1621585;88;21019;-69
2022/08/22 10:47:05;;;;;;;32.38;6.60;;;;;;;27.87;44.85;99496.23;1621718;88;21126;-71
2022/08/22 10:49:50;;;;;;;45.85;7.47;;;;;;;28.00;44.31;99490.74;1619578;88;21086;-71
2022/08/22 10:52:29;;;;;;;40.48;7.97;;;;;;;28.14;43.49;99492.95;1617779;88;22202;-74
2022/08/22 10:55:14;;;;;;;56.45;8.35;;;;;;;28.25;43.47;99496.66;1621924;88;21133;-73
2022/08/22 10:58:06;;;;;;;59.67;6.85;;;;;;;28.38;43.28;99491.14;1594498;88;21073;-75
2022/08/22 11:00:44;;;;;;;35.13;8.25;;;;;;;28.52;43.41;99490.55;1587658;88;21093;-74
2022/08/22 11:03:29;;;;;;;57.78;8.45;;;;;;;28.72;42.55;99489.85;1622030;88;21042;-73
2022/08/22 11:06:02;;;;;;;85.57;13.62;;;;;;;28.90;42.18;99497.79;1621794;88;21061;-72
2022/08/22 11:08:35;;;;;;;79.05;13.93;;;;;;;29.06;39.57;99498.39;1622043;88;21786;-71
2022/08/22 11:11:11;;;;;;;;;;;;;;;29.17;37.59;99500.67;1622710;88;21078;-70
2022/08/22 11:13:58;;;;;;;72.58;10.72;;;;;;;29.23;37.08;99496.39;1627055;86;20211;-71
2022/08/22 11:16:36;;;;;;;93.55;9.28;;;;;;;29.28;36.67;99499.41;1655103;86;21111;-69
2022/08/22 11:19:21;;;;;;;88.72;13.45;;;;;;;29.36;36.76;99494.17;1637229;86;21028;-68
2022/08/22 11:22:13;;;;;;;103.20;15.72;;;;;;;29.46;36.48;99497.06;1624501;88;21807;-70
2022/08/22 11:25:15;;;;;;;97.55;15.03;;;;;;;29.43;36.04;99495.65;1625574;88;21531;-70
2022/08/22 11:28:02;;;;;;;83.22;13.18;;;;;;;29.44;35.85;99499.44;1625526;88;20995;-69
2022/08/22 11:30:56;;;;;;;110.50;13.25;;;;;;;29.44;35.95;99500.02;1620668;86;21131;-71
2022/08/22 11:33:37;;;;;;;103.40;13.45;;;;;;;29.42;36.16;99497.62;1614645;88;21023;-70
2022/08/22 11:36:28;;;;;;;73.67;12.68;;;;;;;29.45;35.61;99498.81;1613633;88;21141;-69
2022/08/22 11:39:05;;;;;;;79.55;13.48;;;;;;;29.48;35.93;99500.05;1588897;90;21788;-68
2022/08/22 11:41:47;;;;;;;63.38;10.53;;;;;;;29.53;36.17;99500.50;1595626;90;21514;-68
2022/08/22 11:44:19;;;;;;;93.75;11.20;;;;;;;29.64;36.13;99491.68;1598873;89;21080;-71
2022/08/22 11:46:48;;;;;;;87.83;11.70;;;;;;;29.72;35.69;99501.67;1593850;88;21077;-74
2022/08/22 11:49:38;;;;;;;96.57;12.93;;;;;;;29.72;35.76;99497.52;1588648;90;21161;-70
2022/08/22 11:52:16;;;;;;;102.00;12.95;;;;;;;29.79;36.11;99492.02;1588880;90;21067;-72
2022/08/22 11:55:22;;;;;;;78.12;11.83;;;;;;;29.83;35.44;99491.45;1569149;90;21560;-69
2022/08/22 11:57:57;;;;;;;104.60;16.20;;;;;;;29.92;34.95;99498.11;1588859;90;21588;-73
2022/08/22 12:00:32;;;;;;;75.28;11.97;;;;;;;29.96;35.21;99496.75;1563767;91;21114;-74
2022/08/22 12:03:21;;;;;;;86.70;17.42;;;;;;;29.94;35.37;99488.80;1575482;91;21815;-76
2022/08/22 12:06:14;;;;;;;96.97;14.28;;;;;;;29.95;35.62;99495.95;1585689;90;21049;-76
2022/08/22 12:09:09;;;;;;;114.45;16.50;;;;;;;29.90;35.35;99496.30;1589281;89;21031;-73
2022/08/22 12:12:08;;;;;;;90.28;13.72;;;;;;;29.95;35.04;99495.14;1588763;90;21004;-72
2022/08/22 12:14:40;;;;;;;88.85;11.57;;;;;;;29.98;34.70;99499.33;1587932;90;21628;-73
2022/08/22 12:17:15;;;;;;;112.68;15.58;;;;;;;30.07;35.01;99503.19;1588678;90;21804;-74
2022/08/22 12:20:12;;;;;;;48.28;10.85;;;;;;;30.15;35.20;99495.11;1588605;90;21054;-74
2022/08/22 12:23:11;;;;;;;72.92;11.00;;;;;;;30.24;34.92;99491.40;1609741;88;21051;-74
2022/08/22 12:26:02;;;;;;;99.17;14.63;;;;;;;30.23;35.04;99498.92;1588798;90;21027;-73
2022/08/22 12:28:38;;;;;;;96.30;12.55;;;;;;;30.29;33.91;99496.59;1588540;90;21535;-73
2022/08/22 12:31:27;;;;;;;109.95;13.83;;;;;;;30.37;33.25;99505.75;1588789;88;21256;-71
2022/08/22 12:34:12;;;;;;;74.85;10.58;;;;;;;30.37;33.40;99506.55;1588548;90;21004;-72
2022/08/22 12:37:14;;;;;;;60.58;10.43;;;;;;;30.42;33.97;99495.08;1592412;88;21060;-73
2022/08/22 12:39:56;;;;;;;82.00;12.97;;;;;;;30.49;34.40;99501.30;1616381;88;21612;-71
2022/08/22 12:42:36;;;;;;;89.00;13.40;;;;;;;30.62;34.54;99499.20;1616231;87;21083;-74
2022/08/22 12:45:37;;;;;;;76.62;10.95;;;;;;;30.59;34.96;99493.63;1593581;90;21067;-76
2022/08/22 12:48:43;;;;;;;85.25;12.03;;;;;;;30.53;35.61;99497.95;1526374;90;21045;-76
2022/08/22 12:51:33;;;;;;;80.28;10.03;;;;;;;30.50;35.98;99500.92;1607081;88;20945;-74
2022/08/22 12:54:28;;;;;;;74.58;9.15;;;;;;;30.56;35.69;99498.55;1616011;88;21037;-74
2022/08/22 12:57:12;;;;;;;56.42;9.50;;;;;;;30.67;35.09;99496.64;1615683;88;21589;-73
2022/08/22 12:59:47;;;;;;;65.15;8.63;;;;;;;30.70;34.15;99492.48;1616276;88;21563;-76
2022/08/22 13:02:20;;;;;;;62.65;8.60;;;;;;;30.68;34.41;99492.69;1616162;88;21067;-75